Terminal Aerodrome Forecast
Issued by NWS

Home | Current Version | Previous Version | Text Only | Print | Product List | Glossary On
Versions: 1 2 3 4 5 6 7 8 9 10 11 12
170
FTUS41 KBTV 072038 AAA
TAFMPV
TAF AMD
KMPV 072038Z 0721/0818 VRB03KT P6SM BKN035
     FM081300 11004KT P6SM OVC035=

USA.gov is the U.S. government's official web portal to all federal, state and local government web resources and services.